Time;durP1;ratioP1;P1;durP2;ratioP2;P2;SDS_P1;SDS_P2;PMS_P1;PMS_P2;Temp;Humidity;BMP_temperature;BMP_pressure;BME280_temperature;BME280_humidity;BME280_pressure;Samples;Min_cycle;Max_cycle;Signal;HPM_P1;HPM_P2
2022/10/21 00:03:42;;;;;;;14.23;8.98;;;;;;;15.01;100.00;100706.69;10374415;28;20156;-71
2022/10/21 00:08:42;;;;;;;12.52;9.55;;;;;;;15.02;100.00;100703.72;10373745;28;20041;-72
2022/10/21 00:13:42;;;;;;;13.65;9.90;;;;;;;15.01;100.00;100706.69;10375872;28;20064;-71
2022/10/21 00:18:44;;;;;;;16.05;10.82;;;;;;;14.98;100.00;100702.53;10374631;28;20054;-72
2022/10/21 00:23:44;;;;;;;21.10;10.30;;;;;;;14.91;100.00;100699.06;10375667;28;20049;-72
2022/10/21 00:28:45;;;;;;;13.43;9.60;;;;;;;14.91;100.00;100690.06;10374084;28;20037;-71
2022/10/21 00:33:45;;;;;;;15.13;9.20;;;;;;;14.82;100.00;100675.91;10374691;28;20172;-72
2022/10/21 00:38:47;;;;;;;11.52;9.55;;;;;;;14.84;100.00;100681.97;10374771;28;20038;-72
2022/10/21 00:43:59;;;;;;;21.08;10.35;;;;;;;14.77;100.00;100675.75;10372365;28;20037;-72
2022/10/21 00:49:00;;;;;;;16.52;9.93;;;;;;;14.68;100.00;100669.81;10358280;28;20084;-72
2022/10/21 00:54:01;;;;;;;21.55;11.43;;;;;;;14.62;100.00;100663.41;10374178;28;20462;-72
2022/10/21 00:59:02;;;;;;;18.58;12.10;;;;;;;14.58;100.00;100661.34;10372682;28;20038;-73
2022/10/21 01:04:04;;;;;;;15.40;12.50;;;;;;;14.42;100.00;100668.22;10373164;28;20382;-72
2022/10/21 01:09:05;;;;;;;18.48;11.43;;;;;;;14.30;100.00;100660.00;10373764;28;20049;-72
2022/10/21 01:14:22;;;;;;;16.15;10.38;;;;;;;14.28;100.00;100658.56;10388478;28;20381;-71
2022/10/21 01:19:53;;;;;;;14.18;10.40;;;;;;;14.17;100.00;100647.38;10373717;28;20128;-73
2022/10/21 01:25:23;;;;;;;16.90;11.13;;;;;;;14.02;100.00;100644.19;10374158;28;20370;-72
2022/10/21 01:30:43;;;;;;;22.20;11.23;;;;;;;13.99;100.00;100627.47;10373443;28;20045;-72
2022/10/21 01:36:21;;;;;;;15.43;10.13;;;;;;;13.86;100.00;100628.47;10388044;28;20111;-71
2022/10/21 01:41:29;;;;;;;12.23;10.00;;;;;;;13.75;100.00;100623.75;10373404;28;20424;-73
2022/10/21 01:46:46;;;;;;;15.75;10.35;;;;;;;13.73;100.00;100634.88;10388633;28;20036;-72
2022/10/21 01:51:46;;;;;;;19.80;10.32;;;;;;;13.71;100.00;100628.81;10388095;28;20022;-71
2022/10/21 01:56:46;;;;;;;17.38;10.07;;;;;;;13.63;100.00;100624.50;10378525;28;20077;-71
2022/10/21 02:01:47;;;;;;;19.27;11.02;;;;;;;13.54;100.00;100612.25;10379889;28;20042;-71
2022/10/21 02:06:47;;;;;;;12.68;9.57;;;;;;;13.45;100.00;100602.69;10380244;28;20029;-72
2022/10/21 02:11:48;;;;;;;13.30;10.70;;;;;;;13.42;100.00;100608.59;10362433;28;20064;-71
2022/10/21 02:16:49;;;;;;;22.80;11.70;;;;;;;13.36;100.00;100595.88;10363244;28;20046;-71
2022/10/21 02:21:50;;;;;;;15.73;11.27;;;;;;;13.36;100.00;100587.72;10379518;28;20045;-72
2022/10/21 02:26:51;;;;;;;16.30;11.45;;;;;;;13.31;100.00;100587.56;10394695;28;20030;-72
2022/10/21 02:31:54;;;;;;;14.73;11.25;;;;;;;13.24;100.00;100587.56;10379058;28;20033;-71
2022/10/21 02:37:16;;;;;;;20.60;11.30;;;;;;;13.16;100.00;100575.09;10380166;28;20042;-70
2022/10/21 02:42:19;;;;;;;16.30;11.32;;;;;;;13.20;100.00;100568.16;10379907;28;20026;-70
2022/10/21 02:47:19;;;;;;;16.80;10.02;;;;;;;13.20;100.00;100575.47;10377797;28;20049;-70
2022/10/21 02:52:20;;;;;;;31.45;12.57;;;;;;;13.19;100.00;100576.56;10379369;28;20037;-70
2022/10/21 02:57:20;;;;;;;12.27;10.63;;;;;;;13.24;100.00;100574.88;10377936;28;20478;-69
2022/10/21 03:02:20;;;;;;;12.70;10.57;;;;;;;13.27;100.00;100576.28;10378312;28;20519;-70
2022/10/21 03:07:21;;;;;;;19.98;11.13;;;;;;;13.22;100.00;100567.94;10378288;28;20076;-69
2022/10/21 03:12:21;;;;;;;13.75;10.45;;;;;;;13.20;100.00;100576.31;10377921;28;20030;-69
2022/10/21 03:17:22;;;;;;;16.48;11.38;;;;;;;13.23;100.00;100566.88;10378092;28;20137;-70
2022/10/21 03:22:22;;;;;;;12.25;9.52;;;;;;;13.26;100.00;100558.31;10392567;28;20484;-69
2022/10/21 03:27:22;;;;;;;15.70;12.15;;;;;;;13.18;100.00;100570.28;10377287;28;20068;-69
2022/10/21 03:32:23;;;;;;;21.40;13.57;;;;;;;13.14;100.00;100557.34;10376298;28;20130;-69
2022/10/21 03:37:23;;;;;;;17.88;10.90;;;;;;;13.07;100.00;100542.97;10378569;28;20167;-71
2022/10/21 03:42:23;;;;;;;14.57;11.23;;;;;;;13.02;100.00;100540.94;10375649;28;20463;-69
2022/10/21 03:47:24;;;;;;;20.98;11.20;;;;;;;12.94;100.00;100531.16;10377039;28;20042;-68
2022/10/21 03:52:24;;;;;;;12.25;9.45;;;;;;;12.95;100.00;100532.81;10391325;28;20100;-68
2022/10/21 03:57:25;;;;;;;14.27;10.52;;;;;;;12.97;100.00;100532.63;10376468;28;20386;-68
2022/10/21 04:02:25;;;;;;;14.38;10.02;;;;;;;13.01;100.00;100533.81;10376771;28;20493;-69
2022/10/21 04:07:25;;;;;;;19.75;11.35;;;;;;;12.93;100.00;100536.84;10392341;28;20478;-69
2022/10/21 04:12:26;;;;;;;16.08;9.00;;;;;;;12.91;100.00;100553.34;10375726;28;20547;-69
2022/10/21 04:17:26;;;;;;;15.52;11.68;;;;;;;12.99;100.00;100542.22;10375564;28;20119;-69
2022/10/21 04:22:27;;;;;;;17.70;9.55;;;;;;;13.02;100.00;100551.81;10375320;28;20053;-69
2022/10/21 04:27:27;;;;;;;17.38;12.25;;;;;;;13.07;100.00;100557.41;10375323;28;20066;-68
2022/10/21 04:32:27;;;;;;;12.38;9.65;;;;;;;13.10;100.00;100547.97;10391297;28;20098;-71
2022/10/21 04:37:28;;;;;;;12.13;9.48;;;;;;;13.10;100.00;100559.69;10375997;28;20439;-70
2022/10/21 04:42:28;;;;;;;16.73;10.43;;;;;;;13.11;100.00;100563.22;10375563;28;20044;-71
2022/10/21 04:47:28;;;;;;;12.10;10.52;;;;;;;13.05;100.00;100545.94;10374137;28;20393;-70
2022/10/21 04:52:29;;;;;;;12.93;9.75;;;;;;;13.06;100.00;100553.03;10374324;28;20045;-67
2022/10/21 04:57:29;;;;;;;17.00;8.38;;;;;;;13.04;100.00;100557.84;10374578;28;20037;-68
2022/10/21 05:02:30;;;;;;;24.83;11.60;;;;;;;13.01;100.00;100552.84;10375244;28;20038;-68
2022/10/21 05:07:30;;;;;;;17.83;10.23;;;;;;;13.02;100.00;100568.97;10374426;28;20029;-68
2022/10/21 05:12:31;;;;;;;18.40;11.18;;;;;;;13.00;100.00;100551.19;10375884;28;20034;-68
2022/10/21 05:17:31;;;;;;;12.45;10.07;;;;;;;13.00;100.00;100553.91;10372222;28;20042;-68
2022/10/21 05:22:31;;;;;;;15.05;10.93;;;;;;;13.00;100.00;100548.47;10390999;28;20208;-69
2022/10/21 05:27:32;;;;;;;14.85;9.05;;;;;;;12.98;100.00;100539.72;10374169;28;20121;-68
2022/10/21 05:32:32;;;;;;;20.17;9.68;;;;;;;13.01;100.00;100561.00;10380098;28;20026;-69
2022/10/21 05:37:33;;;;;;;10.45;7.50;;;;;;;13.03;100.00;100545.31;10381736;28;20077;-69
2022/10/21 05:42:33;;;;;;;13.57;7.70;;;;;;;13.04;100.00;100539.66;10381853;28;20515;-69
2022/10/21 05:47:33;;;;;;;11.02;8.07;;;;;;;13.01;100.00;100539.25;10381595;28;20030;-69
2022/10/21 05:52:34;;;;;;;6.80;6.07;;;;;;;13.02;100.00;100538.22;10379849;28;20481;-69
2022/10/21 05:57:35;;;;;;;22.33;8.95;;;;;;;13.00;100.00;100526.75;10380325;28;20026;-69
2022/10/21 06:02:35;;;;;;;10.77;7.35;;;;;;;12.99;100.00;100535.94;10379621;28;20088;-68
2022/10/21 06:07:36;;;;;;;10.60;7.70;;;;;;;13.01;100.00;100544.69;10379498;28;20482;-68
2022/10/21 06:12:36;;;;;;;14.43;7.80;;;;;;;13.02;100.00;100546.38;10379082;28;20124;-68
2022/10/21 06:17:36;;;;;;;9.02;7.45;;;;;;;13.00;100.00;100546.59;10380114;28;20068;-69
2022/10/21 06:22:37;;;;;;;12.70;9.63;;;;;;;13.02;100.00;100543.66;10379839;28;20073;-69
2022/10/21 06:27:37;;;;;;;10.82;8.05;;;;;;;13.02;100.00;100535.50;10379403;28;20064;-69
2022/10/21 06:32:38;;;;;;;14.90;9.45;;;;;;;13.05;100.00;100540.50;10378737;28;20046;-68
2022/10/21 06:37:38;;;;;;;9.75;7.55;;;;;;;13.05;100.00;100540.50;10379406;28;20072;-68
2022/10/21 06:42:38;;;;;;;18.60;9.32;;;;;;;13.06;100.00;100547.59;10379702;28;20041;-68
2022/10/21 06:47:39;;;;;;;13.35;9.52;;;;;;;13.09;100.00;100536.28;10377352;28;20445;-69
2022/10/21 06:52:39;;;;;;;15.73;8.15;;;;;;;13.08;100.00;100536.47;10377852;28;20038;-68
2022/10/21 06:57:40;;;;;;;13.52;8.00;;;;;;;13.17;100.00;100554.19;10378035;28;20041;-68
2022/10/21 07:02:41;;;;;;;17.33;6.30;;;;;;;13.20;100.00;100551.00;10378508;28;20040;-69
2022/10/21 07:07:41;;;;;;;24.90;7.88;;;;;;;13.20;100.00;100568.16;10376702;28;20038;-68
2022/10/21 07:12:42;;;;;;;9.82;6.70;;;;;;;13.20;100.00;100576.31;10376636;28;20057;-68
2022/10/21 07:17:42;;;;;;;9.07;6.70;;;;;;;13.24;100.00;100573.97;10376892;28;20046;-68
2022/10/21 07:22:42;;;;;;;11.65;7.60;;;;;;;13.32;100.00;100583.78;10360123;28;20549;-69
2022/10/21 07:27:43;;;;;;;12.73;8.13;;;;;;;13.39;100.00;100592.72;10377775;28;20041;-67
2022/10/21 07:32:43;;;;;;;12.68;5.82;;;;;;;13.43;100.00;100613.81;10377991;28;20077;-68
2022/10/21 07:37:43;;;;;;;15.40;7.10;;;;;;;13.44;100.00;100592.88;10377268;28;20381;-68
2022/10/21 07:42:44;;;;;;;7.63;6.25;;;;;;;13.49;100.00;100593.84;10375789;28;20049;-69
2022/10/21 07:47:44;;;;;;;14.05;6.22;;;;;;;13.51;100.00;100600.97;10375839;28;20084;-68
2022/10/21 07:52:45;;;;;;;13.32;6.57;;;;;;;13.54;100.00;100611.41;10374428;28;20382;-68
2022/10/21 07:57:45;;;;;;;13.27;7.40;;;;;;;13.57;100.00;100606.34;10375835;28;20026;-67
2022/10/21 08:02:45;;;;;;;7.95;5.72;;;;;;;13.65;100.00;100605.22;10375107;28;20030;-67
2022/10/21 08:07:46;;;;;;;9.32;6.00;;;;;;;13.69;100.00;100609.16;10375011;28;20374;-67
2022/10/21 08:12:46;;;;;;;10.05;5.95;;;;;;;13.70;100.00;100592.59;10373866;28;20037;-67
2022/10/21 08:17:47;;;;;;;12.60;5.88;;;;;;;13.79;100.00;100589.59;10373591;28;20061;-67
2022/10/21 08:22:47;;;;;;;10.50;6.15;;;;;;;13.87;100.00;100592.00;10373910;28;20088;-67
2022/10/21 08:27:47;;;;;;;6.47;4.72;;;;;;;13.99;100.00;100611.16;10373666;28;20168;-67
2022/10/21 08:32:48;;;;;;;6.90;5.95;;;;;;;14.17;100.00;100613.88;10373308;28;20042;-66
2022/10/21 08:37:48;;;;;;;17.27;6.10;;;;;;;14.34;100.00;100619.50;10373464;28;20038;-67
2022/10/21 08:42:49;;;;;;;6.63;5.93;;;;;;;14.47;100.00;100604.88;10373219;28;20034;-66
2022/10/21 08:47:54;;;;;;;13.98;5.75;;;;;;;14.60;100.00;100602.00;10373416;28;20030;-67
2022/10/21 08:52:59;;;;;;;13.10;5.35;;;;;;;14.72;100.00;100591.16;10372615;28;20433;-67
2022/10/21 08:58:00;;;;;;;8.93;4.95;;;;;;;14.81;100.00;100603.38;10357428;28;20033;-66
2022/10/21 09:03:43;;;;;;;8.52;5.57;;;;;;;14.89;100.00;100597.59;10356351;28;20040;-66
2022/10/21 09:09:14;;;;;;;12.70;5.35;;;;;;;15.08;100.00;100593.72;10373810;28;20053;-66
2022/10/21 09:14:48;;;;;;;9.18;5.70;;;;;;;15.33;100.00;100596.22;10374038;28;20478;-66
2022/10/21 09:20:11;;;;;;;20.60;5.78;;;;;;;15.68;100.00;100608.25;10374103;28;20382;-66
2022/10/21 09:25:17;;;;;;;11.07;4.40;;;;;;;15.94;100.00;100604.19;10357575;28;20033;-66
2022/10/21 09:30:20;;;;;;;7.05;5.35;;;;;;;16.07;100.00;100601.19;10373567;28;20034;-65
2022/10/21 09:36:01;;;;;;;5.35;4.20;;;;;;;16.27;100.00;100600.75;10372126;28;20037;-66
2022/10/21 09:41:02;;;;;;;6.00;4.65;;;;;;;16.39;100.00;100614.41;10323917;28;20073;-67
2022/10/21 09:46:02;;;;;;;11.50;5.50;;;;;;;16.51;100.00;100605.06;10355463;28;20030;-66
2022/10/21 09:51:05;;;;;;;12.07;5.95;;;;;;;16.83;100.00;100614.72;10372502;28;20046;-65
2022/10/21 09:56:10;;;;;;;4.88;4.38;;;;;;;17.20;100.00;100610.44;10355465;28;20444;-67
2022/10/21 10:01:15;;;;;;;5.43;4.55;;;;;;;17.71;100.00;100613.16;10355901;28;20450;-66
2022/10/21 10:06:36;;;;;;;8.63;4.72;;;;;;;18.41;100.00;100619.00;10355274;28;20054;-66
2022/10/21 10:12:00;;;;;;;9.57;3.67;;;;;;;18.49;100.00;100618.56;10372602;28;20026;-65
2022/10/21 10:17:22;;;;;;;5.75;3.55;;;;;;;18.81;100.00;100613.16;10376264;28;20056;-65
2022/10/21 10:22:23;;;;;;;3.70;3.35;;;;;;;19.85;100.00;100600.00;10379943;28;20088;-65
2022/10/21 10:27:25;;;;;;;5.60;4.22;;;;;;;19.79;100.00;100609.31;10378507;28;20034;-65
2022/10/21 10:32:30;;;;;;;5.93;3.92;;;;;;;19.70;100.00;100615.28;10380486;28;20042;-66
2022/10/21 10:37:33;;;;;;;9.70;3.10;;;;;;;19.66;100.00;100611.41;10362258;28;20060;-68
2022/10/21 10:42:36;;;;;;;4.85;3.53;;;;;;;19.53;100.00;100611.84;10361220;28;20037;-65
2022/10/21 10:47:46;;;;;;;9.68;3.38;;;;;;;19.55;100.00;100623.38;10377447;28;20029;-66
2022/10/21 10:52:47;;;;;;;4.47;3.40;;;;;;;19.30;100.00;100621.28;10362967;28;20415;-66
2022/10/21 10:57:48;;;;;;;6.93;3.28;;;;;;;18.84;100.00;100629.09;10345368;28;20033;-65
2022/10/21 11:03:10;;;;;;;6.43;3.60;;;;;;;19.34;100.00;100622.44;10361667;28;20038;-66
2022/10/21 11:08:40;;;;;;;6.05;2.83;;;;;;;19.94;100.00;100620.34;10376688;28;20394;-66
2022/10/21 11:13:42;;;;;;;7.72;3.80;;;;;;;20.10;100.00;100619.38;10368640;28;20038;-66
2022/10/21 11:18:47;;;;;;;5.15;2.65;;;;;;;19.78;100.00;100621.38;10344315;28;20062;-66
2022/10/21 11:24:04;;;;;;;3.47;2.70;;;;;;;19.96;100.00;100616.25;10376643;28;20030;-65
2022/10/21 11:29:38;;;;;;;5.93;3.17;;;;;;;21.42;100.00;100622.72;10376669;28;20032;-65
2022/10/21 11:35:05;;;;;;;3.70;3.40;;;;;;;21.26;100.00;100613.59;10377032;28;20061;-65
2022/10/21 11:40:24;;;;;;;8.77;3.10;;;;;;;21.02;100.00;100614.13;10377604;28;20022;-65
2022/10/21 11:45:42;;;;;;;2.47;2.28;;;;;;;20.91;100.00;100623.47;10377551;28;20485;-65
2022/10/21 11:51:01;;;;;;;2.85;2.63;;;;;;;20.82;100.00;100614.09;10361230;28;20529;-65
2022/10/21 11:56:28;;;;;;;3.15;2.92;;;;;;;20.36;100.00;100617.53;10376461;28;20030;-67
2022/10/21 12:01:28;;;;;;;;;;;;;;;20.21;100.00;100615.56;10356816;28;20084;-65
2022/10/21 12:06:50;;;;;;;7.95;3.10;;;;;;;20.23;100.00;100618.03;10377393;28;19940;-65
2022/10/21 12:11:53;;;;;;;2.50;2.33;;;;;;;20.14;100.00;100614.16;10374901;28;20038;-65
2022/10/21 12:16:56;;;;;;;2.80;2.58;;;;;;;20.27;100.00;100599.91;10373842;28;20045;-65
2022/10/21 12:21:56;;;;;;;5.45;2.47;;;;;;;20.00;100.00;100615.72;10374591;28;20034;-65
2022/10/21 12:27:24;;;;;;;3.75;2.88;;;;;;;19.99;100.00;100617.66;10375416;28;20072;-65
2022/10/21 12:32:29;;;;;;;13.30;2.58;;;;;;;20.75;100.00;100630.88;10376062;28;20104;-66
2022/10/21 12:37:41;;;;;;;4.50;2.47;;;;;;;22.15;100.00;100628.63;10373294;28;20108;-65
2022/10/21 12:42:46;;;;;;;5.97;2.63;;;;;;;22.74;100.00;100625.03;10374842;28;20438;-65
2022/10/21 12:47:47;;;;;;;8.63;2.67;;;;;;;23.10;100.00;100612.94;10357694;28;20394;-65
2022/10/21 12:53:13;;;;;;;5.13;2.47;;;;;;;22.84;100.00;100604.81;10372782;28;20065;-66
2022/10/21 12:58:36;;;;;;;1.80;1.70;;;;;;;22.92;100.00;100612.50;10374648;28;20030;-66
2022/10/21 13:03:46;;;;;;;5.10;2.85;;;;;;;22.45;100.00;100613.88;10375148;28;20455;-67
2022/10/21 13:08:52;;;;;;;8.48;1.95;;;;;;;22.53;100.00;100612.47;10372589;28;20036;-66
2022/10/21 13:14:17;;;;;;;3.28;2.30;;;;;;;22.46;100.00;100610.03;10374270;28;20513;-65
2022/10/21 13:19:17;;;;;;;1.60;1.50;;;;;;;22.24;100.00;100610.41;10373547;28;20361;-65
2022/10/21 13:24:22;;;;;;;3.08;2.15;;;;;;;22.19;100.00;100609.59;10373971;28;20112;-65
2022/10/21 13:29:36;;;;;;;2.67;2.47;;;;;;;22.58;100.00;100611.59;10372609;28;20041;-65
2022/10/21 13:34:36;;;;;;;9.60;2.40;;;;;;;22.64;100.00;100611.28;10372715;28;20466;-65
2022/10/21 13:39:37;;;;;;;1.60;1.50;;;;;;;22.13;100.00;100610.69;10356111;28;20038;-65
2022/10/21 13:44:38;;;;;;;3.90;2.30;;;;;;;21.93;100.00;100606.91;10373583;28;20041;-66
2022/10/21 13:49:40;;;;;;;4.68;1.98;;;;;;;21.85;100.00;100612.97;10373961;28;20037;-65
2022/10/21 13:54:40;;;;;;;5.10;2.20;;;;;;;21.88;100.00;100615.16;10379704;28;20140;-65
2022/10/21 13:59:41;;;;;;;6.57;2.03;;;;;;;21.74;100.00;100616.88;10380279;28;20034;-66
2022/10/21 14:04:42;;;;;;;5.72;2.45;;;;;;;21.82;100.00;100614.38;10382120;28;20117;-65
2022/10/21 14:09:50;;;;;;;3.85;2.00;;;;;;;21.66;100.00;100611.91;10380926;28;20041;-65
2022/10/21 14:14:51;;;;;;;3.00;2.35;;;;;;;21.76;100.00;100617.41;10378957;28;20134;-65
2022/10/21 14:20:05;;;;;;;7.20;2.15;;;;;;;21.78;100.00;100610.50;10362511;28;20038;-66
2022/10/21 14:25:14;;;;;;;4.95;2.15;;;;;;;21.74;100.00;100614.13;10363585;28;20116;-65
2022/10/21 14:30:20;;;;;;;2.92;2.17;;;;;;;21.27;100.00;100604.22;10378932;28;20382;-65
2022/10/21 14:35:26;;;;;;;4.15;2.30;;;;;;;21.04;100.00;100620.19;10379613;28;20034;-66
2022/10/21 14:40:40;;;;;;;6.13;2.63;;;;;;;20.87;100.00;100616.88;10378711;28;20042;-66
2022/10/21 14:45:48;;;;;;;9.15;2.65;;;;;;;20.63;100.00;100617.38;10363164;28;20031;-65
2022/10/21 14:50:53;;;;;;;3.33;2.35;;;;;;;20.14;100.00;100612.22;10362203;28;20033;-65
2022/10/21 14:55:55;;;;;;;2.70;2.50;;;;;;;19.93;100.00;100621.47;10377849;28;20037;-66
2022/10/21 15:00:57;;;;;;;3.58;1.70;;;;;;;19.88;100.00;100633.25;10376722;28;20527;-65
2022/10/21 15:06:21;;;;;;;6.78;2.22;;;;;;;19.72;100.00;100624.09;10346345;28;20092;-66
2022/10/21 15:11:25;;;;;;;5.35;2.00;;;;;;;19.43;100.00;100629.09;10346838;28;20040;-66
2022/10/21 15:16:27;;;;;;;4.30;2.78;;;;;;;19.11;100.00;100628.25;10376705;28;20109;-66
2022/10/21 15:21:39;;;;;;;1.83;1.73;;;;;;;18.90;100.00;100627.25;10377106;28;20117;-66
2022/10/21 15:26:39;;;;;;;4.93;2.42;;;;;;;18.77;100.00;100623.00;10377128;28;20034;-66
2022/10/21 15:31:40;;;;;;;1.83;1.73;;;;;;;18.67;100.00;100628.34;10375928;28;20096;-65
2022/10/21 15:36:41;;;;;;;1.73;1.60;;;;;;;18.53;100.00;100617.75;10377247;28;20037;-65
2022/10/21 15:41:41;;;;;;;3.55;2.72;;;;;;;18.50;100.00;100622.94;10376011;28;20034;-66
2022/10/21 15:46:45;;;;;;;1.67;1.48;;;;;;;18.40;100.00;100623.66;10377634;28;20038;-66
2022/10/21 15:51:45;;;;;;;2.45;2.03;;;;;;;18.28;100.00;100620.22;10377015;28;20120;-65
2022/10/21 15:56:48;;;;;;;3.15;2.13;;;;;;;18.18;100.00;100631.88;10345072;28;20096;-65
2022/10/21 16:01:49;;;;;;;6.60;1.58;;;;;;;18.07;100.00;100622.72;10360876;28;20156;-66
2022/10/21 16:06:49;;;;;;;3.33;1.95;;;;;;;17.99;100.00;100622.31;10376663;28;20034;-66
2022/10/21 16:11:50;;;;;;;3.20;2.03;;;;;;;17.80;100.00;100625.34;10375693;28;20056;-66
2022/10/21 16:16:52;;;;;;;8.57;2.53;;;;;;;17.69;100.00;100628.16;10374774;28;20041;-67
2022/10/21 16:21:52;;;;;;;3.45;2.17;;;;;;;17.53;100.00;100624.38;10375698;28;20040;-67
2022/10/21 16:26:53;;;;;;;5.35;2.15;;;;;;;17.47;100.00;100625.38;10378938;28;20045;-66
2022/10/21 16:31:54;;;;;;;1.92;1.83;;;;;;;17.32;100.00;100624.03;10378489;28;20049;-67
2022/10/21 16:36:54;;;;;;;3.20;2.35;;;;;;;17.26;100.00;100627.78;10379062;28;20455;-66
2022/10/21 16:41:54;;;;;;;6.13;3.17;;;;;;;17.17;100.00;100629.28;10379371;28;20407;-66
2022/10/21 16:46:55;;;;;;;6.97;2.38;;;;;;;17.06;100.00;100630.16;10379549;28;20080;-66
2022/10/21 16:51:56;;;;;;;3.72;2.45;;;;;;;16.98;100.00;100634.16;10344559;28;20029;-65
2022/10/21 16:56:56;;;;;;;3.33;3.03;;;;;;;16.89;100.00;100632.88;10378872;28;20034;-65
2022/10/21 17:02:00;;;;;;;7.10;2.80;;;;;;;16.88;100.00;100642.13;10377613;28;20045;-66
2022/10/21 17:07:00;;;;;;;3.42;3.13;;;;;;;16.93;100.00;100637.59;10378605;28;20386;-66
2022/10/21 17:12:01;;;;;;;6.88;3.50;;;;;;;16.88;100.00;100637.53;10362318;28;20041;-68
2022/10/21 17:17:01;;;;;;;10.30;3.83;;;;;;;16.74;100.00;100645.16;10378746;28;20085;-67
2022/10/21 17:22:02;;;;;;;5.72;3.28;;;;;;;16.66;100.00;100652.94;10357909;28;20068;-65
2022/10/21 17:27:02;;;;;;;5.25;3.05;;;;;;;16.63;100.00;100646.03;10380211;28;20041;-65
2022/10/21 17:32:03;;;;;;;3.40;2.75;;;;;;;16.60;100.00;100656.63;10384664;28;20033;-68
2022/10/21 17:37:03;;;;;;;4.30;3.28;;;;;;;16.43;100.00;100653.81;10381990;28;20044;-66
2022/10/21 17:42:04;;;;;;;4.85;3.85;;;;;;;16.38;100.00;100668.22;10381916;28;20037;-66
2022/10/21 17:47:04;;;;;;;6.68;3.47;;;;;;;16.39;100.00;100669.06;10383675;28;20488;-66
2022/10/21 17:52:04;;;;;;;7.53;3.42;;;;;;;16.33;100.00;100673.56;10383707;28;20037;-67
2022/10/21 17:57:05;;;;;;;3.65;2.70;;;;;;;16.28;100.00;100671.56;10384549;28;20117;-67
2022/10/21 18:02:07;;;;;;;3.08;2.17;;;;;;;16.34;100.00;100686.19;10383158;28;20038;-66
2022/10/21 18:07:08;;;;;;;4.22;2.58;;;;;;;16.57;100.00;100690.75;10381574;28;20042;-66
2022/10/21 18:12:09;;;;;;;2.17;1.75;;;;;;;16.52;100.00;100685.16;10395816;28;20042;-67
2022/10/21 18:17:10;;;;;;;3.53;1.88;;;;;;;16.44;100.00;100691.03;10379617;28;20054;-66
2022/10/21 18:22:11;;;;;;;2.45;2.10;;;;;;;16.35;100.00;100690.56;10380360;28;20046;-66
2022/10/21 18:27:11;;;;;;;2.58;2.38;;;;;;;16.25;100.00;100701.28;10395946;28;20121;-67
2022/10/21 18:32:12;;;;;;;3.75;3.03;;;;;;;16.18;100.00;100700.59;10380344;28;20409;-66
2022/10/21 18:37:12;;;;;;;13.07;2.42;;;;;;;16.21;100.00;100700.94;10377695;28;20037;-67
2022/10/21 18:42:12;;;;;;;4.90;2.90;;;;;;;16.23;100.00;100703.41;10379543;28;20038;-67
2022/10/21 18:47:13;;;;;;;6.50;3.08;;;;;;;16.24;100.00;100716.84;10379221;28;20037;-65
2022/10/21 18:52:13;;;;;;;5.95;3.47;;;;;;;16.22;100.00;100716.25;10379042;28;20362;-66
2022/10/21 18:57:13;;;;;;;1.65;1.50;;;;;;;16.14;100.00;100719.34;10379799;28;20493;-67
2022/10/21 19:02:17;;;;;;;7.05;2.53;;;;;;;16.03;100.00;100712.81;10377934;28;20030;-66
2022/10/21 19:07:18;;;;;;;3.75;1.90;;;;;;;16.01;100.00;100714.94;10361155;28;20053;-67
2022/10/21 19:12:18;;;;;;;6.20;2.60;;;;;;;16.01;100.00;100725.03;10377693;28;20034;-67
2022/10/21 19:17:19;;;;;;;10.55;2.53;;;;;;;15.99;100.00;100711.66;10377575;28;20060;-66
2022/10/21 19:22:22;;;;;;;11.73;3.03;;;;;;;15.96;100.00;100720.31;10377738;28;20038;-67
2022/10/21 19:27:22;;;;;;;9.00;3.33;;;;;;;15.90;100.00;100713.06;10376471;28;20504;-66
2022/10/21 19:32:22;;;;;;;6.95;2.78;;;;;;;15.81;100.00;100720.78;10377359;28;20039;-66
2022/10/21 19:37:23;;;;;;;6.32;2.10;;;;;;;15.80;100.00;100719.13;10375318;28;20060;-66
2022/10/21 19:42:23;;;;;;;10.65;4.00;;;;;;;15.76;100.00;100722.53;10377533;28;20048;-66
2022/10/21 19:47:24;;;;;;;2.20;1.92;;;;;;;15.81;100.00;100722.66;10377426;28;20030;-66
2022/10/21 19:52:24;;;;;;;5.10;2.03;;;;;;;15.88;100.00;100725.28;10377288;28;20442;-67
2022/10/21 19:57:24;;;;;;;11.07;2.95;;;;;;;15.73;100.00;100728.47;10377168;28;20033;-67
2022/10/21 20:02:25;;;;;;;9.60;2.22;;;;;;;15.64;100.00;100740.81;10376022;28;20113;-66
2022/10/21 20:07:25;;;;;;;11.90;2.25;;;;;;;15.56;100.00;100729.13;10376537;28;20121;-68
2022/10/21 20:12:26;;;;;;;3.97;2.35;;;;;;;15.53;100.00;100731.50;10376649;28;20049;-66
2022/10/21 20:17:26;;;;;;;1.65;1.55;;;;;;;15.52;100.00;100730.69;10375481;28;20049;-66
2022/10/21 20:22:26;;;;;;;3.33;2.20;;;;;;;15.50;100.00;100727.34;10375341;28;20034;-66
2022/10/21 20:27:27;;;;;;;7.45;2.85;;;;;;;15.44;100.00;100722.00;10375117;28;20042;-67
2022/10/21 20:32:27;;;;;;;6.57;2.95;;;;;;;15.36;100.00;100731.34;10375077;28;20050;-66
2022/10/21 20:37:27;;;;;;;3.85;2.75;;;;;;;15.29;100.00;100736.09;10375409;28;20065;-65
2022/10/21 20:42:28;;;;;;;7.88;2.55;;;;;;;15.23;100.00;100737.84;10376189;28;20064;-67
2022/10/21 20:47:28;;;;;;;8.80;3.08;;;;;;;15.19;100.00;100731.19;10375162;28;20034;-66
2022/10/21 20:52:29;;;;;;;2.40;1.95;;;;;;;15.15;100.00;100740.88;10374826;28;20391;-66
2022/10/21 20:57:30;;;;;;;4.00;2.47;;;;;;;15.09;100.00;100737.22;10374226;28;20033;-66
2022/10/21 21:02:30;;;;;;;13.38;2.60;;;;;;;15.07;100.00;100744.78;10374099;28;20065;-66
2022/10/21 21:07:31;;;;;;;2.47;2.28;;;;;;;15.07;100.00;100738.50;10375152;28;20495;-66
2022/10/21 21:12:31;;;;;;;4.40;2.20;;;;;;;15.02;100.00;100741.91;10373805;28;20073;-67
2022/10/21 21:17:32;;;;;;;3.63;2.63;;;;;;;15.02;100.00;100758.25;10374913;28;20045;-66
2022/10/21 21:22:34;;;;;;;6.25;2.45;;;;;;;15.01;100.00;100761.22;10374861;28;20056;-66
2022/10/21 21:27:35;;;;;;;12.00;2.75;;;;;;;14.93;100.00;100756.91;10372334;28;20044;-65
2022/10/21 21:32:35;;;;;;;4.10;2.17;;;;;;;14.93;100.00;100765.09;10374107;28;20113;-66
2022/10/21 21:37:35;;;;;;;2.85;2.08;;;;;;;14.92;100.00;100768.06;10374744;28;20041;-66
2022/10/21 21:42:36;;;;;;;2.83;2.47;;;;;;;14.85;100.00;100771.69;10374764;28;20091;-66
2022/10/21 21:47:36;;;;;;;4.85;2.63;;;;;;;14.81;100.00;100770.50;10374782;28;20034;-66
2022/10/21 21:52:37;;;;;;;2.22;1.90;;;;;;;14.82;100.00;100774.06;10372227;28;20085;-66
2022/10/21 21:57:37;;;;;;;4.75;2.33;;;;;;;14.77;100.00;100772.03;10373655;28;20121;-66
2022/10/21 22:02:38;;;;;;;2.20;2.00;;;;;;;14.80;100.00;100781.63;10340176;28;20038;-66
2022/10/21 22:07:38;;;;;;;6.90;2.83;;;;;;;14.87;100.00;100777.78;10372710;28;20120;-65
2022/10/21 22:12:39;;;;;;;6.68;2.67;;;;;;;14.96;100.00;100775.53;10375272;28;20044;-65
2022/10/21 22:17:39;;;;;;;8.02;2.85;;;;;;;14.98;100.00;100778.06;10379256;28;20049;-67
2022/10/21 22:22:40;;;;;;;7.78;3.50;;;;;;;14.99;100.00;100788.72;10379032;28;20034;-66
2022/10/21 22:27:40;;;;;;;6.80;3.83;;;;;;;15.05;100.00;100770.63;10380461;28;20033;-66
2022/10/21 22:32:41;;;;;;;4.78;2.70;;;;;;;15.14;100.00;100771.97;10379077;28;20565;-66
2022/10/21 22:37:41;;;;;;;8.80;3.28;;;;;;;15.20;100.00;100768.31;10363123;28;20072;-66
2022/10/21 22:42:42;;;;;;;7.43;2.78;;;;;;;15.27;100.00;100770.94;10347275;28;20033;-67
2022/10/21 22:47:42;;;;;;;8.30;3.75;;;;;;;15.22;100.00;100762.59;10379365;28;20069;-66
2022/10/21 22:52:43;;;;;;;9.38;3.15;;;;;;;15.10;100.00;100768.03;10379375;28;20096;-65